メインページ
METAR-TAF:

METAR-TAF

空港 :

花巻空港

花巻, 日本

緯度: 39-26N, 経度: 141-08E, 海抜: 90m

現時点の気象観測

当レポートは2時間2分前の10:00(UTC)に作成
西/北西の風 7kt、西/南西から北/北西の間で変化する
気温 15°C
湿度 51%
気圧 1018 hPa
視程10km以上
高度3000ftの雲はほとんどない

METAR: RJSI 201000Z 29007KT 250V340 9999 FEW030 15/05 Q1018

時間: 21:02 (12:02 UTC)


TAF: 見つかりません

4,000以上の空港の気象観測と天気予報(METAR報とTAF報)

利用可能な観測所は地図上に黄色い丸と赤い丸で示す。

丸の上にカーソルを重ねると観測所名を参照できる。

次にクリックすると気象観測と天気予報を参照できる。

マップの切り替え:黒色「×」印の緑ボタンをクリックして拡大、「-」印の緑ボタンをクリックして縮小、緑色の三角印をクリックして隣りの地図に切り替え


METAR-TAF: